Pagrindinis puslapis
METAR-TAF:

METAR-TAF

Oro uostai :

Thoothukudi, Indija

platuma: 8-43-27N, ilguma: 78-01-33E, Aukštis: 39 m

Dabartinis oras

Ataskaita buvo paskelbta 11 valandos ir 4 minutes, ne 12:00 UTC
Vėjas 14 kt iš Rytų/Šiaurės Rytų
Temperatūra 31°C
Drėgmė 66%
Slėgis 1009 hPa
Matomumas: 6000 m
Išsisklaidę debesys ne aukštis 2000 ft
Mažai debesys ne aukštis 3000 ft, Liūtiniai kamuoliniai debesys.

METAR: VOTK 291200Z 06014KT 6000 SCT020 FEW030CB 31/24 Q1009 NOSIG

Laikas: 04:34 (23:04 UTC)


TAF: trūkstamas

Orai ataskaitas ir orų prognozės (METAR, TAF).

turimą stotys yra geltonos ir raudonos taškus žemėlapyje.

Perkelti pele per norėdami pamatyti stoties vardą.

Tada spustelėkite, norėdami matyti oro stebėjimo ir prognozės.

Norėdami pakeisti žemėlapį: spustelėkite ant žalios mygtukų su juodo kryžiaus žemyn,; žalią mygtuką su brūkšneliu, jei norite nutolinti; arba žalių rodyklių gretimoms žemėlapius.


METAR-TAF: